Time;durP1;ratioP1;P1;durP2;ratioP2;P2;SDS_P1;SDS_P2;PMS_P1;PMS_P2;Temp;Humidity;BMP_temperature;BMP_pressure;BME280_temperature;BME280_humidity;BME280_pressure;Samples;Min_cycle;Max_cycle;Signal;HPM_P1;HPM_P2
2024/01/12 00:01:12;;;;;;;14.55;3.13;;;5.10;99.90;;;;;;5001653;28;20049;-66
2024/01/12 00:03:39;;;;;;;8.27;2.80;;;5.00;99.90;;;;;;4999637;28;20054;-66
2024/01/12 00:06:06;;;;;;;15.15;3.55;;;5.10;99.90;;;;;;5004439;28;20049;-65
2024/01/12 00:08:33;;;;;;;14.63;2.15;;;5.00;99.90;;;;;;5002733;28;20049;-65
2024/01/12 00:11:00;;;;;;;7.15;1.88;;;5.00;99.90;;;;;;4998226;28;20078;-68
2024/01/12 00:13:27;;;;;;;6.47;1.95;;;5.00;99.90;;;;;;5005921;28;20054;-66
2024/01/12 00:15:54;;;;;;;14.65;1.95;;;5.00;99.90;;;;;;5003909;28;20532;-66
2024/01/12 00:18:21;;;;;;;7.38;1.75;;;5.10;99.90;;;;;;5002820;28;20053;-67
2024/01/12 00:20:48;;;;;;;10.07;1.88;;;5.00;99.90;;;;;;5005276;28;20048;-67
2024/01/12 00:23:15;;;;;;;10.32;1.73;;;5.00;99.90;;;;;;5004126;28;20144;-66
2024/01/12 00:25:42;;;;;;;7.00;1.60;;;5.10;99.90;;;;;;5000882;28;20492;-66
2024/01/12 00:28:10;;;;;;;8.77;1.98;;;5.00;99.90;;;;;;5011001;28;20383;-66
2024/01/12 00:30:41;;;;;;;10.18;1.67;;;5.10;99.90;;;;;;5008713;28;20058;-67
2024/01/12 00:33:08;;;;;;;11.85;2.05;;;5.10;99.90;;;;;;5007648;28;20046;-66
2024/01/12 00:35:35;;;;;;;7.18;1.88;;;5.00;99.90;;;;;;4990295;28;20500;-67
2024/01/12 00:38:02;;;;;;;7.25;1.98;;;5.00;99.90;;;;;;5007224;28;20057;-66
2024/01/12 00:40:29;;;;;;;9.65;2.80;;;5.00;99.90;;;;;;5008273;28;20049;-66
2024/01/12 00:42:55;;;;;;;11.13;2.15;;;5.00;99.90;;;;;;5009834;28;20046;-67
2024/01/12 00:45:22;;;;;;;6.60;1.20;;;5.00;99.90;;;;;;5006590;28;20050;-66
2024/01/12 00:47:49;;;;;;;13.20;1.80;;;5.10;99.90;;;;;;4990272;28;20099;-66
2024/01/12 00:50:16;;;;;;;10.93;2.10;;;5.10;99.90;;;;;;5001907;28;20091;-66
2024/01/12 00:52:44;;;;;;;14.63;2.13;;;5.10;99.90;;;;;;5007913;28;20100;-66
2024/01/12 00:55:11;;;;;;;7.68;1.60;;;5.10;99.90;;;;;;5008211;28;20559;-66
2024/01/12 00:57:38;;;;;;;6.95;2.30;;;5.10;99.90;;;;;;4983653;28;20046;-66
2024/01/12 01:00:05;;;;;;;18.38;2.58;;;5.10;99.90;;;;;;5007711;28;20480;-66
2024/01/12 01:02:32;;;;;;;10.85;1.90;;;5.10;99.90;;;;;;5008150;28;20486;-65
2024/01/12 01:04:59;;;;;;;15.65;2.00;;;5.00;99.90;;;;;;5002713;28;20046;-65
2024/01/12 01:07:28;;;;;;;9.82;2.10;;;5.10;99.90;;;;;;5006634;28;20402;-65
2024/01/12 01:09:55;;;;;;;10.05;1.98;;;5.10;99.90;;;;;;4988896;28;20496;-66
2024/01/12 01:12:22;;;;;;;17.67;2.28;;;5.20;99.90;;;;;;5007767;28;20239;-66
2024/01/12 01:14:48;;;;;;;13.80;2.03;;;5.10;99.90;;;;;;5006942;28;20501;-66
2024/01/12 01:17:15;;;;;;;7.57;1.50;;;5.20;99.90;;;;;;4984389;28;20074;-66
2024/01/12 01:19:42;;;;;;;10.13;2.58;;;5.20;99.90;;;;;;5002171;28;20412;-66
2024/01/12 01:22:09;;;;;;;10.13;1.95;;;5.10;99.90;;;;;;5006851;28;20129;-65
2024/01/12 01:24:36;;;;;;;6.07;1.67;;;5.20;99.90;;;;;;5005425;28;20332;-66
2024/01/12 01:27:03;;;;;;;14.00;2.15;;;5.20;99.90;;;;;;5005870;28;20135;-67
2024/01/12 01:29:30;;;;;;;11.32;2.17;;;5.10;99.90;;;;;;5006559;28;20120;-66
2024/01/12 01:31:57;;;;;;;15.38;3.17;;;5.30;99.90;;;;;;4989241;28;20049;-66
2024/01/12 01:34:24;;;;;;;11.10;2.33;;;5.10;99.90;;;;;;5004471;28;20501;-66
2024/01/12 01:36:51;;;;;;;14.77;4.13;;;5.10;99.90;;;;;;4989475;28;20065;-67
2024/01/12 01:39:18;;;;;;;9.73;2.88;;;5.10;99.90;;;;;;5000955;28;20050;-70
2024/01/12 01:41:44;;;;;;;13.63;2.15;;;5.00;99.90;;;;;;5006590;28;20521;-67
2024/01/12 01:44:11;;;;;;;21.35;4.05;;;5.00;99.90;;;;;;5003290;28;20410;-66
2024/01/12 01:46:38;;;;;;;7.43;2.33;;;5.10;99.90;;;;;;5007451;28;20038;-66
2024/01/12 01:49:05;;;;;;;10.82;1.98;;;5.10;99.90;;;;;;5005981;28;20061;-66
2024/01/12 01:51:32;;;;;;;16.63;2.55;;;5.10;99.90;;;;;;5005708;28;20038;-66
2024/01/12 01:53:59;;;;;;;10.05;2.10;;;5.10;99.90;;;;;;4984040;28;20053;-66
2024/01/12 01:56:26;;;;;;;21.08;2.53;;;5.00;99.90;;;;;;4989139;28;20057;-66
2024/01/12 01:58:53;;;;;;;15.88;2.55;;;5.10;99.90;;;;;;5006897;28;20049;-66
2024/01/12 02:01:20;;;;;;;9.13;2.60;;;5.10;99.90;;;;;;4986398;28;20069;-65
2024/01/12 02:03:46;;;;;;;8.82;2.10;;;5.10;99.90;;;;;;4988185;28;20120;-66
2024/01/12 02:06:14;;;;;;;28.20;2.58;;;5.10;99.90;;;;;;4969222;28;20050;-66
2024/01/12 02:08:41;;;;;;;14.10;2.22;;;5.10;99.90;;;;;;5006041;28;20074;-65
2024/01/12 02:11:08;;;;;;;18.27;2.60;;;5.10;99.90;;;;;;4988389;28;20101;-66
2024/01/12 02:13:34;;;;;;;13.68;2.70;;;5.10;99.90;;;;;;5002552;28;20042;-65
2024/01/12 02:16:01;;;;;;;15.48;3.00;;;5.10;99.90;;;;;;4985782;28;20058;-66
2024/01/12 02:18:31;;;;;;;15.60;2.22;;;5.10;99.90;;;;;;4989613;28;20241;-65
2024/01/12 02:20:58;;;;;;;11.60;1.88;;;5.10;99.90;;;;;;5006828;28;20050;-66
2024/01/12 02:23:25;;;;;;;13.48;2.65;;;5.10;99.90;;;;;;5006466;28;20854;-67
2024/01/12 02:25:52;;;;;;;13.73;2.05;;;5.10;99.90;;;;;;5000258;28;20170;-67
2024/01/12 02:28:19;;;;;;;20.65;3.28;;;5.10;99.90;;;;;;5007207;28;20064;-66
2024/01/12 02:30:46;;;;;;;18.92;3.08;;;5.10;99.90;;;;;;4987030;28;20080;-67
2024/01/12 02:33:13;;;;;;;14.13;2.47;;;5.10;99.90;;;;;;4988082;28;20046;-66
2024/01/12 02:35:40;;;;;;;16.67;2.47;;;5.10;99.90;;;;;;5005488;28;20053;-68
2024/01/12 02:38:06;;;;;;;14.93;2.65;;;5.20;99.90;;;;;;5001884;28;20051;-67
2024/01/12 02:40:33;;;;;;;11.77;2.30;;;5.20;99.90;;;;;;4989057;28;20050;-66
2024/01/12 02:43:01;;;;;;;18.08;3.78;;;5.20;99.90;;;;;;5005566;28;20162;-68
2024/01/12 02:45:28;;;;;;;17.98;3.05;;;5.20;99.90;;;;;;5006297;28;20144;-67
2024/01/12 02:47:55;;;;;;;18.20;2.97;;;5.20;99.90;;;;;;5006339;28;20049;-67
2024/01/12 02:50:22;;;;;;;19.00;2.35;;;5.20;99.90;;;;;;5001459;28;20057;-66
2024/01/12 02:52:49;;;;;;;16.63;2.83;;;5.10;99.90;;;;;;5006291;28;20042;-67
2024/01/12 02:55:16;;;;;;;20.48;3.13;;;5.10;99.90;;;;;;5010558;28;20141;-67
2024/01/12 02:57:43;;;;;;;18.33;2.78;;;5.10;99.90;;;;;;5005895;28;20046;-66
2024/01/12 03:00:11;;;;;;;25.75;3.05;;;5.20;99.90;;;;;;5004268;28;20050;-65
2024/01/12 03:02:38;;;;;;;15.57;3.25;;;5.10;99.90;;;;;;5005782;28;20046;-66
2024/01/12 03:05:05;;;;;;;20.55;3.13;;;5.20;99.90;;;;;;4987340;28;20042;-66
2024/01/12 03:07:32;;;;;;;16.85;2.67;;;4.90;99.90;;;;;;5005685;28;20073;-66
2024/01/12 03:10:00;;;;;;;22.20;2.45;;;5.20;99.90;;;;;;5004834;28;20073;-67
2024/01/12 03:12:27;;;;;;;12.38;2.28;;;5.20;99.90;;;;;;5004598;28;20104;-65
2024/01/12 03:14:53;;;;;;;19.63;3.03;;;5.20;99.90;;;;;;5004200;28;20559;-66
2024/01/12 03:17:21;;;;;;;23.02;4.75;;;5.20;99.90;;;;;;5005738;28;20096;-65
2024/01/12 03:19:48;;;;;;;24.95;3.22;;;5.20;99.90;;;;;;4986522;28;20524;-65
2024/01/12 03:22:14;;;;;;;12.02;2.47;;;5.20;99.90;;;;;;5005399;28;20061;-66
2024/01/12 03:24:41;;;;;;;25.35;2.95;;;5.20;99.90;;;;;;5005664;28;20119;-66
2024/01/12 03:27:08;;;;;;;10.20;3.20;;;5.20;99.90;;;;;;5006313;28;20054;-66
2024/01/12 03:29:35;;;;;;;32.33;4.50;;;5.20;99.90;;;;;;5005405;28;20119;-66
2024/01/12 03:32:02;;;;;;;17.63;2.42;;;5.20;99.90;;;;;;5006028;28;20046;-66
2024/01/12 03:34:29;;;;;;;28.90;3.65;;;5.20;99.90;;;;;;4986906;28;20100;-66
2024/01/12 03:36:56;;;;;;;18.45;3.40;;;5.20;99.90;;;;;;4997434;28;20383;-66
2024/01/12 03:39:23;;;;;;;23.33;3.03;;;5.20;99.90;;;;;;5004090;28;20037;-65
2024/01/12 03:41:50;;;;;;;17.50;2.53;;;5.20;99.90;;;;;;4984275;28;20046;-66
2024/01/12 03:44:17;;;;;;;24.90;5.82;;;5.20;99.90;;;;;;5000371;28;20081;-66
2024/01/12 03:46:44;;;;;;;15.32;3.78;;;5.20;99.90;;;;;;5005751;28;20100;-66
2024/01/12 03:49:10;;;;;;;28.20;3.03;;;5.20;99.90;;;;;;5004457;28;20042;-66
2024/01/12 03:51:37;;;;;;;23.25;4.70;;;5.20;99.90;;;;;;4988430;28;20042;-66
2024/01/12 03:54:04;;;;;;;22.20;3.67;;;5.20;99.90;;;;;;5005443;28;20041;-67
2024/01/12 03:56:31;;;;;;;23.10;4.20;;;5.20;99.90;;;;;;4999858;28;20493;-65
2024/01/12 03:58:58;;;;;;;15.27;3.20;;;5.20;99.90;;;;;;5006962;28;20042;-66
2024/01/12 04:01:25;;;;;;;27.30;4.15;;;5.20;99.90;;;;;;5008479;28;20096;-66
2024/01/12 04:03:52;;;;;;;19.25;4.35;;;5.20;99.90;;;;;;5009041;28;20061;-66
2024/01/12 04:06:19;;;;;;;16.90;3.28;;;5.20;99.90;;;;;;5006905;28;20046;-66
2024/01/12 04:08:46;;;;;;;26.52;5.10;;;5.20;99.90;;;;;;5006363;28;20054;-65
2024/01/12 04:11:31;;;;;;;14.88;3.10;;;5.30;99.90;;;;;;5008817;28;20053;-65
2024/01/12 04:13:57;;;;;;;22.30;4.57;;;5.20;99.90;;;;;;4989969;28;20077;-66
2024/01/12 04:16:24;;;;;;;25.58;3.30;;;5.20;99.90;;;;;;4990057;28;20104;-66
2024/01/12 04:18:51;;;;;;;17.75;5.25;;;5.20;99.90;;;;;;5006417;28;20058;-66
2024/01/12 04:21:18;;;;;;;22.52;3.60;;;5.20;99.90;;;;;;5008974;28;20100;-67
2024/01/12 04:23:45;;;;;;;21.33;3.33;;;5.30;99.90;;;;;;5009215;28;20100;-66
2024/01/12 04:26:12;;;;;;;25.20;6.03;;;5.30;99.90;;;;;;5008663;28;20061;-65
2024/01/12 04:28:38;;;;;;;20.65;3.63;;;5.30;99.90;;;;;;5011199;28;20076;-65
2024/01/12 04:31:05;;;;;;;20.30;3.80;;;5.30;99.90;;;;;;4991398;28;20092;-65
2024/01/12 04:33:33;;;;;;;19.40;3.28;;;5.30;99.90;;;;;;5008776;28;20624;-65
2024/01/12 04:36:00;;;;;;;15.40;3.40;;;5.30;99.90;;;;;;5001013;28;20042;-64
2024/01/12 04:38:27;;;;;;;20.73;3.20;;;5.30;99.90;;;;;;5005621;28;20080;-67
2024/01/12 04:40:54;;;;;;;15.63;2.85;;;5.30;99.90;;;;;;5007096;28;20497;-66
2024/01/12 04:43:21;;;;;;;18.85;3.30;;;5.30;99.90;;;;;;4990780;28;20045;-66
2024/01/12 04:45:48;;;;;;;26.02;6.30;;;5.30;99.90;;;;;;5001952;28;20464;-64
2024/01/12 04:48:15;;;;;;;17.58;3.63;;;5.30;99.90;;;;;;5005285;28;20081;-67
2024/01/12 04:50:42;;;;;;;22.08;3.70;;;5.30;99.90;;;;;;5007801;28;20437;-67
2024/01/12 04:53:09;;;;;;;23.23;3.22;;;5.30;99.90;;;;;;5007486;28;20133;-65
2024/01/12 04:55:35;;;;;;;16.25;3.67;;;5.30;99.90;;;;;;5007733;28;20493;-66
2024/01/12 04:58:03;;;;;;;19.60;2.80;;;5.30;99.90;;;;;;5008173;28;20050;-66
2024/01/12 05:00:30;;;;;;;24.92;3.80;;;5.30;99.90;;;;;;4994684;28;20112;-65
2024/01/12 05:02:57;;;;;;;20.02;3.08;;;5.30;99.90;;;;;;5006269;28;20137;-65
2024/01/12 05:05:24;;;;;;;18.17;2.67;;;5.30;99.90;;;;;;5007806;28;20057;-65
2024/01/12 05:07:51;;;;;;;15.23;2.75;;;5.30;99.90;;;;;;5005969;28;20060;-65
2024/01/12 05:10:18;;;;;;;24.23;2.90;;;5.30;99.90;;;;;;5006681;28;20192;-65
2024/01/12 05:12:45;;;;;;;23.40;3.05;;;5.30;99.90;;;;;;5003846;28;20186;-65
2024/01/12 05:15:11;;;;;;;22.60;3.95;;;5.30;99.90;;;;;;5010148;28;20052;-66
2024/01/12 05:17:38;;;;;;;20.42;3.15;;;5.30;99.90;;;;;;5003578;28;20052;-66
2024/01/12 05:20:06;;;;;;;21.77;3.33;;;5.30;99.90;;;;;;5009286;28;20493;-66
2024/01/12 05:22:35;;;;;;;22.40;2.83;;;5.30;99.90;;;;;;5008314;28;20493;-66
2024/01/12 05:25:05;;;;;;;18.85;3.20;;;5.30;99.90;;;;;;5001111;28;20057;-64
2024/01/12 05:27:32;;;;;;;15.30;3.15;;;5.30;99.90;;;;;;5006999;28;20156;-71
2024/01/12 05:29:59;;;;;;;17.10;3.33;;;5.30;99.90;;;;;;4999187;28;20046;-66
2024/01/12 05:32:30;;;;;;;15.20;3.20;;;5.30;99.90;;;;;;5002330;28;20370;-67
2024/01/12 05:34:57;;;;;;;17.63;3.85;;;5.30;99.90;;;;;;5003579;28;21290;-69
2024/01/12 05:37:24;;;;;;;24.92;4.00;;;5.40;99.90;;;;;;5002429;28;20064;-66
2024/01/12 05:39:51;;;;;;;19.35;3.00;;;5.30;99.90;;;;;;5006853;28;20076;-66
2024/01/12 05:42:18;;;;;;;15.35;2.95;;;5.30;99.90;;;;;;4985824;28;20090;-66
2024/01/12 05:44:45;;;;;;;20.65;3.17;;;5.30;99.90;;;;;;5007797;28;20049;-66
2024/01/12 05:47:11;;;;;;;21.30;3.63;;;5.30;99.90;;;;;;5007203;28;20053;-67
2024/01/12 05:49:38;;;;;;;24.17;6.05;;;5.40;99.90;;;;;;5006502;28;20038;-65
2024/01/12 05:52:05;;;;;;;17.65;2.90;;;5.30;99.90;;;;;;4999582;28;20057;-66
2024/01/12 05:54:32;;;;;;;27.88;4.53;;;5.30;99.90;;;;;;4985446;28;20042;-66
2024/01/12 05:56:59;;;;;;;20.08;3.35;;;5.40;99.90;;;;;;4999697;28;20078;-66
2024/01/12 05:59:26;;;;;;;12.77;3.05;;;5.30;99.90;;;;;;5007151;28;20038;-66
2024/01/12 06:01:54;;;;;;;20.95;2.95;;;5.40;99.90;;;;;;5006439;28;20050;-65
2024/01/12 06:04:21;;;;;;;17.58;2.78;;;5.30;99.90;;;;;;5004679;28;20052;-66
2024/01/12 06:06:48;;;;;;;26.60;4.32;;;5.30;99.90;;;;;;5007403;28;20061;-66
2024/01/12 06:09:15;;;;;;;10.50;2.85;;;5.30;99.90;;;;;;5006116;28;20046;-67
2024/01/12 06:11:42;;;;;;;19.00;2.92;;;5.30;99.90;;;;;;4987567;28;20053;-66
2024/01/12 06:14:10;;;;;;;24.35;3.90;;;5.30;99.90;;;;;;5008383;28;20050;-66
2024/01/12 06:16:37;;;;;;;21.77;2.63;;;5.30;99.90;;;;;;5009470;28;20046;-65
2024/01/12 06:19:04;;;;;;;24.65;3.38;;;5.30;99.90;;;;;;4999387;28;20053;-67
2024/01/12 06:21:31;;;;;;;18.30;3.17;;;5.30;99.90;;;;;;4995886;28;20104;-67
2024/01/12 06:23:58;;;;;;;23.20;3.67;;;5.30;99.90;;;;;;5000181;28;20099;-66
2024/01/12 06:26:25;;;;;;;15.73;2.92;;;5.30;99.90;;;;;;4988046;28;20128;-67
2024/01/12 06:28:52;;;;;;;16.20;2.88;;;5.30;99.90;;;;;;4982338;28;20112;-72
2024/01/12 06:31:19;;;;;;;22.83;5.78;;;5.30;99.90;;;;;;5006373;28;20140;-67
2024/01/12 06:33:46;;;;;;;15.10;2.92;;;5.40;99.90;;;;;;4989040;28;20046;-66
2024/01/12 06:36:13;;;;;;;22.08;3.47;;;5.40;99.90;;;;;;5000332;28;20065;-67
2024/01/12 06:38:40;;;;;;;21.83;3.03;;;5.40;99.90;;;;;;5004358;28;20056;-66
2024/01/12 06:41:07;;;;;;;18.55;3.22;;;5.40;99.90;;;;;;5005971;28;20089;-66
2024/01/12 06:43:34;;;;;;;18.65;2.83;;;5.40;99.90;;;;;;5006318;28;20057;-67
2024/01/12 06:46:05;;;;;;;30.38;4.53;;;5.40;99.90;;;;;;5006949;28;20493;-67
2024/01/12 06:48:32;;;;;;;16.05;2.70;;;5.40;99.90;;;;;;5013096;28;20052;-65
2024/01/12 06:50:59;;;;;;;21.55;3.15;;;5.40;99.90;;;;;;4987468;28;20361;-67
2024/01/12 06:53:26;;;;;;;20.33;4.00;;;5.40;99.90;;;;;;4657044;28;10000147;-67
2024/01/12 06:55:52;;;;;;;15.85;3.65;;;5.40;99.90;;;;;;5001176;28;20539;-66
2024/01/12 06:58:19;;;;;;;17.02;2.75;;;5.40;99.90;;;;;;4996096;28;20137;-66
2024/01/12 07:00:46;;;;;;;22.50;3.40;;;5.40;99.90;;;;;;5001937;28;20115;-64
2024/01/12 07:03:13;;;;;;;19.98;3.47;;;5.40;99.90;;;;;;5002490;28;20049;-66
2024/01/12 07:05:40;;;;;;;18.30;2.97;;;5.40;99.90;;;;;;5002828;28;20139;-65
2024/01/12 07:08:07;;;;;;;24.50;3.10;;;5.40;99.90;;;;;;5009013;28;20042;-64
2024/01/12 07:10:34;;;;;;;26.98;3.92;;;5.40;99.90;;;;;;5003472;28;20068;-65
2024/01/12 07:13:01;;;;;;;19.02;3.15;;;5.40;99.90;;;;;;5004800;28;20131;-64
2024/01/12 07:15:27;;;;;;;8.90;2.35;;;5.40;99.90;;;;;;5004871;28;20046;-65
2024/01/12 07:17:54;;;;;;;20.10;4.60;;;5.40;99.90;;;;;;5004296;28;20053;-65
2024/01/12 07:20:22;;;;;;;17.25;2.47;;;5.40;99.90;;;;;;5000603;28;20424;-65
2024/01/12 07:22:48;;;;;;;29.70;4.65;;;5.40;99.90;;;;;;5003156;28;20119;-65
2024/01/12 07:25:15;;;;;;;14.75;2.15;;;5.40;99.90;;;;;;5004853;28;20080;-65
2024/01/12 07:27:42;;;;;;;12.43;3.63;;;5.40;99.90;;;;;;5001989;28;20116;-62
2024/01/12 07:30:12;;;;;;;23.98;3.85;;;5.40;99.90;;;;;;4999676;28;20065;-62
2024/01/12 07:32:39;;;;;;;16.48;2.55;;;5.40;99.90;;;;;;4994751;28;20092;-63
2024/01/12 07:35:07;;;;;;;24.23;2.75;;;5.40;99.90;;;;;;5004875;28;20580;-62
2024/01/12 07:37:34;;;;;;;10.75;2.50;;;5.40;99.90;;;;;;5005423;28;20390;-63
2024/01/12 07:40:02;;;;;;;21.13;2.42;;;5.50;99.90;;;;;;5008057;28;21242;-62
2024/01/12 07:42:29;;;;;;;16.63;3.08;;;5.50;99.90;;;;;;5000771;28;20303;-63
2024/01/12 07:44:56;;;;;;;22.90;2.83;;;5.40;99.90;;;;;;4995016;28;20403;-63
2024/01/12 07:47:23;;;;;;;18.90;2.97;;;5.40;99.90;;;;;;5001300;28;20513;-62
2024/01/12 07:49:50;;;;;;;17.05;5.50;;;5.40;99.90;;;;;;4995814;28;20112;-62
2024/01/12 07:52:17;;;;;;;14.15;3.17;;;5.40;99.90;;;;;;4986877;28;20054;-62
2024/01/12 07:54:46;;;;;;;24.75;3.28;;;5.40;99.90;;;;;;5001401;28;20142;-63
2024/01/12 07:57:13;;;;;;;18.77;2.53;;;5.40;99.90;;;;;;4999453;28;20053;-64
2024/01/12 07:59:40;;;;;;;7.70;2.08;;;5.40;99.90;;;;;;5004028;28;20069;-63
2024/01/12 08:02:07;;;;;;;17.75;3.33;;;5.40;99.90;;;;;;4994096;28;20524;-63
2024/01/12 08:04:36;;;;;;;18.65;3.38;;;5.40;99.90;;;;;;5003619;28;20061;-64
2024/01/12 08:07:03;;;;;;;14.02;2.55;;;5.40;99.90;;;;;;4983119;28;20042;-62
2024/01/12 08:09:30;;;;;;;13.90;2.67;;;5.40;99.90;;;;;;4995327;28;20038;-62
2024/01/12 08:11:57;;;;;;;17.38;3.38;;;5.40;99.90;;;;;;4995008;28;20173;-63
2024/01/12 08:14:24;;;;;;;12.13;2.38;;;5.40;99.90;;;;;;5001951;28;20053;-66
2024/01/12 08:16:52;;;;;;;9.10;2.05;;;5.40;99.90;;;;;;4999249;28;20491;-63
2024/01/12 08:19:19;;;;;;;13.23;2.40;;;5.40;99.90;;;;;;5003573;28;20053;-63
2024/01/12 08:21:46;;;;;;;14.98;2.03;;;5.50;99.90;;;;;;5005870;28;20053;-63
2024/01/12 08:24:21;;;;;;;11.52;2.63;;;5.50;99.90;;;;;;5001649;28;20045;-64
2024/01/12 08:26:48;;;;;;;10.18;2.17;;;5.50;99.90;;;;;;4997476;28;20053;-64
2024/01/12 08:29:15;;;;;;;18.27;2.60;;;5.40;99.90;;;;;;5002684;28;20543;-63
2024/01/12 08:31:43;;;;;;;11.45;2.47;;;5.40;99.90;;;;;;4996005;28;20061;-64
2024/01/12 08:34:10;;;;;;;17.33;2.45;;;5.40;99.90;;;;;;4982173;28;20050;-63
2024/01/12 08:36:37;;;;;;;16.02;3.00;;;5.50;99.90;;;;;;4993122;28;20699;-63
2024/01/12 08:39:04;;;;;;;17.50;3.35;;;5.40;99.90;;;;;;4996755;28;20046;-62
2024/01/12 08:41:31;;;;;;;23.42;2.70;;;5.50;99.90;;;;;;5000318;28;20078;-63
2024/01/12 08:43:59;;;;;;;14.00;2.22;;;5.50;99.90;;;;;;5000068;28;20066;-64
2024/01/12 08:46:26;;;;;;;9.52;1.88;;;5.50;99.90;;;;;;5009091;28;20056;-62
2024/01/12 08:48:54;;;;;;;9.27;2.13;;;5.50;99.90;;;;;;5003331;28;20071;-63
2024/01/12 08:51:23;;;;;;;21.80;2.60;;;5.50;99.90;;;;;;5008650;28;20464;-67
2024/01/12 08:53:50;;;;;;;13.32;1.92;;;5.50;99.90;;;;;;5001828;28;20052;-65
2024/01/12 08:56:18;;;;;;;15.48;2.47;;;5.60;99.90;;;;;;5005515;28;20156;-62
2024/01/12 08:58:45;;;;;;;13.32;2.22;;;5.60;99.90;;;;;;5003851;28;20126;-63
2024/01/12 09:01:12;;;;;;;12.40;2.55;;;5.60;99.90;;;;;;5005054;28;20123;-63
2024/01/12 09:03:39;;;;;;;19.85;2.15;;;5.60;99.90;;;;;;5002013;28;20135;-62
2024/01/12 09:06:07;;;;;;;17.05;2.50;;;5.60;99.90;;;;;;5010036;28;20050;-62
2024/01/12 09:08:34;;;;;;;15.20;1.75;;;5.60;99.90;;;;;;4993181;28;20674;-64
2024/01/12 09:11:01;;;;;;;8.85;1.75;;;5.50;99.90;;;;;;4982894;28;20081;-63
2024/01/12 09:13:28;;;;;;;9.60;2.20;;;5.60;99.90;;;;;;4981714;28;20071;-62
2024/01/12 09:15:55;;;;;;;14.10;2.10;;;5.50;99.90;;;;;;5008266;28;20537;-63
2024/01/12 09:18:22;;;;;;;7.60;2.75;;;5.60;99.90;;;;;;5007606;28;20054;-62
2024/01/12 09:20:49;;;;;;;5.68;1.40;;;5.60;99.90;;;;;;4988196;28;20038;-62
2024/01/12 09:23:16;;;;;;;13.07;2.47;;;5.60;99.90;;;;;;5001798;28;20052;-63
2024/01/12 09:25:43;;;;;;;9.00;1.63;;;5.50;99.90;;;;;;5003417;28;20126;-63
2024/01/12 09:28:10;;;;;;;15.65;2.60;;;5.60;99.90;;;;;;5006520;28;20054;-62
2024/01/12 09:30:39;;;;;;;10.88;1.88;;;5.60;99.90;;;;;;5005655;28;20050;-62
2024/01/12 09:33:06;;;;;;;11.93;1.88;;;5.60;99.90;;;;;;4999534;28;20097;-62
2024/01/12 09:35:33;;;;;;;8.55;1.52;;;5.60;99.90;;;;;;5005394;28;20129;-63
2024/01/12 09:38:03;;;;;;;14.10;2.28;;;5.60;99.90;;;;;;5003549;28;20100;-62
2024/01/12 09:40:30;;;;;;;8.98;1.38;;;5.50;99.90;;;;;;5000003;28;20061;-62
2024/01/12 09:42:57;;;;;;;10.15;3.78;;;5.60;99.90;;;;;;4989677;28;20060;-62
2024/01/12 09:45:24;;;;;;;25.35;3.47;;;5.60;99.90;;;;;;4972435;28;20054;-63
2024/01/12 09:47:52;;;;;;;13.75;2.33;;;5.60;99.90;;;;;;4988632;28;20058;-63
2024/01/12 09:50:22;;;;;;;18.80;3.05;;;5.60;99.90;;;;;;5009745;28;20061;-62
2024/01/12 09:52:53;;;;;;;11.63;2.47;;;5.60;99.90;;;;;;5006608;28;20134;-62
2024/01/12 09:55:20;;;;;;;14.05;2.25;;;5.60;99.90;;;;;;5004743;28;20116;-63
2024/01/12 09:57:47;;;;;;;12.00;1.83;;;5.70;99.90;;;;;;5001718;28;20203;-66
2024/01/12 10:00:14;;;;;;;15.60;2.25;;;5.70;99.90;;;;;;4999467;28;20496;-62
2024/01/12 10:02:42;;;;;;;8.85;1.70;;;5.70;99.90;;;;;;4989374;28;20042;-63
2024/01/12 10:05:09;;;;;;;10.27;1.67;;;5.70;99.90;;;;;;4999185;28;20050;-63
2024/01/12 10:07:36;;;;;;;25.05;2.20;;;5.70;99.90;;;;;;5006926;28;20057;-63
2024/01/12 10:10:04;;;;;;;11.25;1.85;;;5.70;99.90;;;;;;5004705;28;20050;-62
2024/01/12 10:12:32;;;;;;;10.32;2.08;;;5.70;99.90;;;;;;5002177;28;20050;-62
2024/01/12 10:15:03;;;;;;;11.18;2.70;;;5.70;99.90;;;;;;5006507;28;20038;-63
2024/01/12 10:17:31;;;;;;;8.18;1.92;;;5.80;99.90;;;;;;5004526;28;20058;-63
2024/01/12 10:19:58;;;;;;;9.18;1.88;;;5.80;99.90;;;;;;5002687;28;20054;-63
2024/01/12 10:22:26;;;;;;;14.90;2.70;;;5.80;99.90;;;;;;4990609;28;20077;-65
2024/01/12 10:25:00;;;;;;;11.35;1.95;;;5.70;99.90;;;;;;5004911;28;20054;-63
2024/01/12 10:27:27;;;;;;;13.77;2.83;;;5.70;99.90;;;;;;4989001;28;20099;-63
2024/01/12 10:29:56;;;;;;;15.18;3.60;;;5.80;99.90;;;;;;5000074;28;20050;-62
2024/01/12 10:32:23;;;;;;;5.95;1.33;;;5.80;99.90;;;;;;5001183;28;20996;-63
2024/01/12 10:34:51;;;;;;;8.25;2.08;;;5.80;99.90;;;;;;5004508;28;20045;-63
2024/01/12 10:37:18;;;;;;;16.98;2.75;;;5.70;99.90;;;;;;5006984;28;20046;-63
2024/01/12 10:39:49;;;;;;;19.60;2.80;;;5.80;99.90;;;;;;5003609;28;20049;-63
2024/01/12 10:42:16;;;;;;;18.35;2.97;;;5.80;99.90;;;;;;4997096;28;20046;-63
2024/01/12 10:44:43;;;;;;;9.63;2.05;;;5.80;99.90;;;;;;5002306;28;20068;-62
2024/01/12 10:47:18;;;;;;;11.75;3.50;;;5.80;99.90;;;;;;5005354;28;20049;-63
2024/01/12 10:50:04;;;;;;;7.05;2.00;;;5.90;99.90;;;;;;5005356;28;20576;-63
2024/01/12 10:52:46;;;;;;;12.35;1.98;;;5.80;99.90;;;;;;4993231;28;20046;-63
2024/01/12 10:55:16;;;;;;;6.78;1.23;;;5.80;99.90;;;;;;4993259;28;20134;-63
2024/01/12 10:57:43;;;;;;;8.10;1.52;;;5.90;99.90;;;;;;5006602;28;20133;-63
2024/01/12 11:00:11;;;;;;;10.57;1.67;;;5.80;99.90;;;;;;4987135;28;20116;-64
2024/01/12 11:02:38;;;;;;;8.68;1.95;;;5.90;99.90;;;;;;4983852;28;20050;-63
2024/01/12 11:05:07;;;;;;;5.20;2.22;;;5.90;99.90;;;;;;4987985;28;20096;-63
2024/01/12 11:07:35;;;;;;;10.15;1.60;;;6.00;99.90;;;;;;4988692;28;20116;-63
2024/01/12 11:10:03;;;;;;;12.50;1.75;;;5.90;99.90;;;;;;5001872;28;20053;-64
2024/01/12 11:12:32;;;;;;;12.20;2.15;;;5.70;99.90;;;;;;4979607;28;20092;-64
2024/01/12 11:14:59;;;;;;;6.68;1.88;;;6.00;99.90;;;;;;4986647;28;20054;-63
2024/01/12 11:17:30;;;;;;;10.57;1.73;;;5.90;99.90;;;;;;4972616;28;20404;-63
2024/01/12 11:20:13;;;;;;;6.80;2.03;;;5.90;99.90;;;;;;5004744;28;20133;-63
2024/01/12 11:22:41;;;;;;;12.90;1.90;;;5.90;99.90;;;;;;4966722;28;20045;-63
2024/01/12 11:25:09;;;;;;;9.75;1.65;;;5.90;99.90;;;;;;5001704;28;20109;-62
2024/01/12 11:27:38;;;;;;;7.82;1.63;;;6.00;99.90;;;;;;4980066;28;20134;-63
2024/01/12 11:30:06;;;;;;;11.88;2.85;;;6.00;99.90;;;;;;5002309;28;20092;-62
2024/01/12 11:32:33;;;;;;;13.65;1.98;;;6.00;99.90;;;;;;4984764;28;20054;-63
2024/01/12 11:35:16;;;;;;;14.45;3.17;;;6.00;99.90;;;;;;4984407;28;20042;-62
2024/01/12 11:37:44;;;;;;;9.73;2.03;;;6.10;99.90;;;;;;5003401;28;20375;-63
2024/01/12 11:40:13;;;;;;;13.20;3.92;;;6.10;99.90;;;;;;5004639;28;20723;-63
2024/01/12 11:42:41;;;;;;;12.77;2.53;;;6.10;99.90;;;;;;4987595;28;20311;-62
2024/01/12 11:45:09;;;;;;;13.32;1.85;;;6.10;99.90;;;;;;5005368;28;20046;-63
2024/01/12 11:47:38;;;;;;;13.63;1.90;;;6.00;99.90;;;;;;5005647;28;20045;-63
2024/01/12 11:50:06;;;;;;;8.38;1.90;;;6.10;99.90;;;;;;5005338;28;20042;-62
2024/01/12 11:52:33;;;;;;;6.88;1.73;;;6.10;99.90;;;;;;5003012;28;20112;-63
2024/01/12 11:55:00;;;;;;;16.38;3.42;;;6.10;99.90;;;;;;5005070;28;20038;-62
2024/01/12 11:57:27;;;;;;;8.93;1.70;;;6.10;99.90;;;;;;5002290;28;20086;-62
2024/01/12 11:59:55;;;;;;;8.93;1.48;;;6.10;99.90;;;;;;5001075;28;20053;-62
2024/01/12 12:02:25;;;;;;;7.03;1.92;;;6.10;99.90;;;;;;4999443;28;20046;-63
2024/01/12 12:04:52;;;;;;;9.70;1.50;;;6.10;99.90;;;;;;4999190;28;20072;-62
2024/01/12 12:07:26;;;;;;;4.22;1.50;;;6.10;99.90;;;;;;5004368;28;20045;-63
2024/01/12 12:09:53;;;;;;;12.02;2.75;;;6.10;99.90;;;;;;5004710;28;20507;-64
2024/01/12 12:12:21;;;;;;;5.57;1.33;;;6.10;99.90;;;;;;4998220;28;20422;-63
2024/01/12 12:15:12;;;;;;;8.57;1.40;;;6.10;99.90;;;;;;5002859;28;20046;-63
2024/01/12 12:17:44;;;;;;;3.38;1.10;;;6.10;99.90;;;;;;4978500;28;20054;-63
2024/01/12 12:20:11;;;;;;;7.38;1.15;;;6.20;99.90;;;;;;5000403;28;20064;-63
2024/01/12 12:22:42;;;;;;;5.53;1.20;;;6.10;99.90;;;;;;5009097;28;20177;-63
2024/01/12 12:25:12;;;;;;;7.47;2.45;;;6.20;99.90;;;;;;4984804;28;20201;-64
2024/01/12 12:27:39;;;;;;;7.15;1.50;;;6.10;99.90;;;;;;5005835;28;20497;-64
2024/01/12 12:30:10;;;;;;;3.90;1.45;;;6.10;99.90;;;;;;5003224;28;20046;-63
2024/01/12 12:32:41;;;;;;;8.52;1.90;;;6.20;99.90;;;;;;5003521;28;20134;-64
2024/01/12 12:35:17;;;;;;;6.53;1.77;;;6.20;99.90;;;;;;4991672;28;20080;-63
2024/01/12 12:37:47;;;;;;;5.45;1.55;;;6.20;99.90;;;;;;5004245;28;20455;-64
2024/01/12 12:40:14;;;;;;;4.93;1.20;;;6.20;99.90;;;;;;4986373;28;20045;-64
2024/01/12 12:42:41;;;;;;;6.07;0.95;;;6.20;99.90;;;;;;5006691;28;20058;-63
2024/01/12 12:45:09;;;;;;;7.30;2.50;;;6.20;99.90;;;;;;5002584;28;20413;-64
2024/01/12 12:47:36;;;;;;;8.68;1.23;;;6.20;99.90;;;;;;5006801;28;20046;-63
2024/01/12 12:50:10;;;;;;;6.93;1.67;;;6.20;99.90;;;;;;4998431;28;20046;-63